PKC102 UHPT-UHPP

Flight info

Callsign PKC102
Flight time N/A
Altitude 22000
Route UK DCT HY
Aircraft YK40/M-SDFIRWY/H

Departure

Time N/A
Airport Tilichiki Airport (UHPT)

Arrival

Time 2026-04-30 03:13
Airport Yelizovo Airport (UHPP)
Time Latitude Longitude Altitude Speed Heading
2026-04-30 01:58 56.23757 162.69354 61 ft 0 kts 95°
2026-04-30 02:03 56.23759 162.69377 62 ft 11 kts 51°
2026-04-30 02:03 56.23864 162.69338 58 ft 18 kts 285°
2026-04-30 02:03 56.23882 162.69043 53 ft 13 kts 297°
2026-04-30 02:04 56.24009 162.69026 51 ft 30 kts
2026-04-30 02:04 56.24231 162.69063 46 ft 26 kts
2026-04-30 02:04 56.24399 162.69099 43 ft 20 kts 13°
2026-04-30 02:04 56.24435 162.69090 43 ft 4 kts 186°
2026-04-30 02:05 56.24318 162.69070 44 ft 42 kts 186°
2026-04-30 02:05 56.23794 162.68988 53 ft 106 kts 184°
2026-04-30 02:05 56.22955 162.68727 225 ft 136 kts 197°
2026-04-30 02:05 56.22182 162.67636 585 ft 150 kts 233°
2026-04-30 02:06 56.21502 162.66112 986 ft 165 kts 234°
2026-04-30 02:06 56.20732 162.64389 1350 ft 181 kts 234°
2026-04-30 02:06 56.19964 162.62628 2173 ft 179 kts 234°
2026-04-30 02:06 56.19164 162.60941 2867 ft 185 kts 228°
2026-04-30 02:07 56.18233 162.59294 3360 ft 193 kts 228°
2026-04-30 02:07 56.17287 162.57552 3788 ft 200 kts 228°
2026-04-30 02:07 56.16305 162.55763 4251 ft 205 kts 227°
2026-04-30 02:07 56.15298 162.53944 4730 ft 208 kts 227°
2026-04-30 02:08 56.14277 162.52109 5224 ft 210 kts 227°
2026-04-30 02:08 56.13237 162.50252 5725 ft 211 kts 227°
2026-04-30 02:08 56.12197 162.48402 6219 ft 212 kts 227°
2026-04-30 02:08 56.11172 162.46547 6709 ft 213 kts 227°
2026-04-30 02:09 56.10130 162.44658 7201 ft 214 kts 227°
2026-04-30 02:09 56.09072 162.42757 7697 ft 215 kts 227°
2026-04-30 02:09 56.08022 162.40886 8184 ft 216 kts 227°
2026-04-30 02:09 56.06961 162.39011 8671 ft 217 kts 227°
2026-04-30 02:10 56.05885 162.37120 9153 ft 217 kts 227°
2026-04-30 02:10 56.04810 162.35251 9627 ft 218 kts 227°
2026-04-30 02:10 56.03727 162.33368 10095 ft 218 kts 226°
2026-04-30 02:10 56.02631 162.31470 10563 ft 219 kts 226°
2026-04-30 02:11 56.01538 162.29585 11030 ft 219 kts 226°
2026-04-30 02:11 56.00460 162.27721 11488 ft 218 kts 228°
2026-04-30 02:11 55.99432 162.25734 11955 ft 218 kts 229°
2026-04-30 02:11 55.98415 162.23764 12404 ft 217 kts 229°
2026-04-30 02:12 55.97391 162.21806 12847 ft 217 kts 229°
2026-04-30 02:12 55.96358 162.19853 13279 ft 217 kts 229°
2026-04-30 02:12 55.95323 162.17915 13703 ft 217 kts 229°
2026-04-30 02:12 55.94285 162.15993 14118 ft 217 kts 229°
2026-04-30 02:13 55.93242 162.14079 14524 ft 217 kts 229°
2026-04-30 02:13 55.92178 162.12148 14941 ft 217 kts 229°
2026-04-30 02:13 55.91129 162.10254 15351 ft 216 kts 229°
2026-04-30 02:13 55.90078 162.08369 15758 ft 215 kts 229°
2026-04-30 02:14 55.89011 162.06471 16132 ft 218 kts 229°
2026-04-30 02:14 55.87925 162.04542 16336 ft 228 kts 229°
2026-04-30 02:14 55.86777 162.02506 16591 ft 235 kts 229°
2026-04-30 02:14 55.85611 162.00441 16877 ft 240 kts 228°
2026-04-30 02:15 55.84423 161.98343 17176 ft 243 kts 228°
2026-04-30 02:15 55.83216 161.96219 17497 ft 245 kts 228°
2026-04-30 02:15 55.81998 161.94086 17829 ft 247 kts 228°
2026-04-30 02:15 55.80774 161.91948 18164 ft 248 kts 228°
2026-04-30 02:16 55.79548 161.89821 18485 ft 248 kts 228°
2026-04-30 02:16 55.78318 161.87701 18821 ft 248 kts 228°
2026-04-30 02:16 55.77084 161.85590 19152 ft 248 kts 228°
2026-04-30 02:16 55.75835 161.83469 19488 ft 248 kts 227°
2026-04-30 02:17 55.74602 161.81389 19815 ft 248 kts 227°
2026-04-30 02:17 55.73351 161.79291 20143 ft 247 kts 227°
2026-04-30 02:17 55.72102 161.77206 20469 ft 247 kts 227°
2026-04-30 02:17 55.70869 161.75153 20796 ft 246 kts 227°
2026-04-30 02:18 55.69608 161.73064 21125 ft 246 kts 227°
2026-04-30 02:18 55.68363 161.71010 21439 ft 245 kts 227°
2026-04-30 02:18 55.67122 161.68970 21750 ft 245 kts 227°
2026-04-30 02:18 55.65880 161.66930 21893 ft 251 kts 227°
2026-04-30 02:19 55.64570 161.64769 21805 ft 265 kts 227°
2026-04-30 02:19 55.63177 161.62468 21757 ft 276 kts 226°
2026-04-30 02:19 55.61758 161.60124 21729 ft 283 kts 226°
2026-04-30 02:19 55.60317 161.57747 21720 ft 285 kts 226°
2026-04-30 02:20 55.58886 161.55397 21725 ft 285 kts 226°
2026-04-30 02:20 55.57433 161.52989 21725 ft 283 kts 229°
2026-04-30 02:20 55.56105 161.50478 21705 ft 283 kts 230°
2026-04-30 02:20 55.54743 161.47931 21702 ft 283 kts 230°
2026-04-30 02:21 55.53401 161.45459 21703 ft 282 kts 229°
2026-04-30 02:21 55.52043 161.42979 21691 ft 282 kts 229°
2026-04-30 02:21 55.50666 161.40482 21685 ft 282 kts 229°
2026-04-30 02:21 55.49300 161.38013 21674 ft 282 kts 229°
2026-04-30 02:22 55.47939 161.35568 21680 ft 282 kts 229°
2026-04-30 02:22 55.46571 161.33124 21670 ft 282 kts 228°
2026-04-30 02:22 55.45185 161.30656 21652 ft 282 kts 228°
2026-04-30 02:22 55.43816 161.28229 21645 ft 282 kts 228°
2026-04-30 02:23 55.42425 161.25768 21641 ft 283 kts 228°
2026-04-30 02:23 55.41046 161.23338 21626 ft 283 kts 227°
2026-04-30 02:23 55.39664 161.20911 21606 ft 283 kts 227°
2026-04-30 02:23 55.38267 161.18465 21590 ft 283 kts 227°
2026-04-30 02:24 55.36865 161.16017 21572 ft 284 kts 227°
2026-04-30 02:24 55.35467 161.13583 21562 ft 284 kts 227°
2026-04-30 02:24 55.34069 161.11163 21551 ft 284 kts 227°
2026-04-30 02:24 55.32664 161.08742 21528 ft 284 kts 227°
2026-04-30 02:25 55.31253 161.06322 21504 ft 284 kts 227°
2026-04-30 02:25 55.29843 161.03919 21479 ft 284 kts 227°
2026-04-30 02:25 55.28426 161.01515 21464 ft 284 kts 227°
2026-04-30 02:25 55.27006 160.99112 21442 ft 284 kts 227°
2026-04-30 02:26 55.25588 160.96719 21450 ft 283 kts 227°
2026-04-30 02:26 55.24173 160.94338 21464 ft 283 kts 226°
2026-04-30 02:26 55.22755 160.91959 21475 ft 282 kts 226°
2026-04-30 02:26 55.21339 160.89597 21487 ft 281 kts 226°
2026-04-30 02:27 55.19912 160.87227 21498 ft 281 kts 226°
2026-04-30 02:27 55.18505 160.84900 21503 ft 281 kts 226°
2026-04-30 02:27 55.17081 160.82553 21503 ft 281 kts 226°
2026-04-30 02:27 55.15672 160.80241 21511 ft 281 kts 226°
2026-04-30 02:28 55.14244 160.77911 21511 ft 281 kts 226°
2026-04-30 02:28 55.12817 160.75592 21508 ft 281 kts 226°
2026-04-30 02:28 55.11385 160.73279 21500 ft 281 kts 226°
2026-04-30 02:28 55.09971 160.70929 21500 ft 280 kts 228°
2026-04-30 02:29 55.08607 160.68517 21485 ft 281 kts 228°
2026-04-30 02:29 55.07228 160.66112 21489 ft 280 kts 228°
2026-04-30 02:29 55.05861 160.63744 21495 ft 280 kts 228°
2026-04-30 02:29 55.04475 160.61356 21501 ft 279 kts 227°
2026-04-30 02:30 55.03090 160.58975 21509 ft 279 kts 227°
2026-04-30 02:30 55.01720 160.56632 21519 ft 279 kts 227°
2026-04-30 02:30 55.00328 160.54262 21531 ft 278 kts 227°
2026-04-30 02:30 54.98948 160.51921 21533 ft 279 kts 227°
2026-04-30 02:31 54.97560 160.49577 21519 ft 279 kts 227°
2026-04-30 02:31 54.96157 160.47224 21501 ft 280 kts 227°
2026-04-30 02:31 54.94764 160.44897 21490 ft 280 kts 227°
2026-04-30 02:31 54.93351 160.42545 21479 ft 280 kts 227°
2026-04-30 02:32 54.91963 160.40234 21519 ft 279 kts 227°
2026-04-30 02:32 54.90560 160.37906 21472 ft 277 kts 226°
2026-04-30 02:32 54.89185 160.35631 21503 ft 269 kts 226°
2026-04-30 02:32 54.87855 160.33443 21521 ft 262 kts 226°
2026-04-30 02:33 54.86548 160.31302 21521 ft 257 kts 226°
2026-04-30 02:33 54.85255 160.29193 21551 ft 252 kts 225°
2026-04-30 02:33 54.83981 160.27133 21571 ft 248 kts 225°
2026-04-30 02:33 54.82743 160.25140 21600 ft 244 kts 225°
2026-04-30 02:34 54.81501 160.23160 21610 ft 242 kts 225°
2026-04-30 02:34 54.80263 160.21191 21612 ft 242 kts 225°
2026-04-30 02:34 54.79015 160.19218 21621 ft 243 kts 225°
2026-04-30 02:34 54.77761 160.17247 21631 ft 244 kts 225°
2026-04-30 02:35 54.76500 160.15274 21628 ft 245 kts 225°
2026-04-30 02:35 54.75228 160.13294 21641 ft 246 kts 225°
2026-04-30 02:35 54.73970 160.11337 21648 ft 247 kts 225°
2026-04-30 02:35 54.72676 160.09325 21632 ft 248 kts 225°
2026-04-30 02:36 54.71403 160.07346 21636 ft 249 kts 224°
2026-04-30 02:36 54.70106 160.05327 21637 ft 251 kts 224°
2026-04-30 02:36 54.68818 160.03325 21638 ft 253 kts 224°
2026-04-30 02:36 54.67501 160.01285 21632 ft 254 kts 224°
2026-04-30 02:37 54.66187 159.99255 21638 ft 256 kts 224°
2026-04-30 02:37 54.65295 159.97882 21629 ft 257 kts 224°
2026-04-30 02:37 54.63505 159.95140 21616 ft 258 kts 224°
2026-04-30 02:37 54.62165 159.93102 21607 ft 259 kts 224°
2026-04-30 02:38 54.60812 159.91057 21603 ft 260 kts 224°
2026-04-30 02:38 54.59453 159.89011 21589 ft 261 kts 224°
2026-04-30 02:38 54.58080 159.86952 21581 ft 261 kts 224°
2026-04-30 02:38 54.56722 159.84926 21570 ft 262 kts 223°
2026-04-30 02:39 54.55342 159.82875 21560 ft 262 kts 223°
2026-04-30 02:39 54.53954 159.80818 21551 ft 262 kts 223°
2026-04-30 02:39 54.52666 159.78642 21565 ft 260 kts 231°
2026-04-30 02:39 54.51691 159.76067 21501 ft 261 kts 244°
2026-04-30 02:40 54.50988 159.73151 21485 ft 260 kts 250°
2026-04-30 02:40 54.50297 159.70335 21646 ft 254 kts 247°
2026-04-30 02:40 54.49521 159.67650 21763 ft 251 kts 243°
2026-04-30 02:40 54.48718 159.64981 21748 ft 253 kts 241°
2026-04-30 02:41 54.47641 159.62616 21823 ft 252 kts 231°
2026-04-30 02:41 54.46432 159.60480 21949 ft 249 kts 224°
2026-04-30 02:41 54.45133 159.58513 21875 ft 254 kts 224°
2026-04-30 02:41 54.43808 159.56476 21860 ft 255 kts 224°
2026-04-30 02:42 54.42482 159.54445 21870 ft 256 kts 224°
2026-04-30 02:42 54.41161 159.52435 21878 ft 256 kts 224°
2026-04-30 02:42 54.39825 159.50409 21882 ft 257 kts 224°
2026-04-30 02:42 54.38487 159.48384 21884 ft 258 kts 224°
2026-04-30 02:43 54.37145 159.46358 21883 ft 258 kts 224°
2026-04-30 02:43 54.35798 159.44331 21888 ft 258 kts 224°
2026-04-30 02:43 54.34448 159.42307 21889 ft 259 kts 224°
2026-04-30 02:43 54.33083 159.40266 21892 ft 259 kts 224°
2026-04-30 02:44 54.31743 159.38272 21896 ft 259 kts 224°
2026-04-30 02:44 54.30392 159.36240 21904 ft 259 kts 226°
2026-04-30 02:44 54.29110 159.34091 21908 ft 259 kts 225°
2026-04-30 02:44 54.27782 159.31950 21909 ft 259 kts 224°
2026-04-30 02:45 54.26458 159.29863 21917 ft 260 kts 224°
2026-04-30 02:45 54.25124 159.27786 21919 ft 260 kts 224°
2026-04-30 02:45 54.23790 159.25722 21918 ft 260 kts 224°
2026-04-30 02:45 54.22445 159.23648 21917 ft 260 kts 224°
2026-04-30 02:46 54.21110 159.21596 21921 ft 260 kts 224°
2026-04-30 02:46 54.19758 159.19524 21924 ft 260 kts 224°
2026-04-30 02:46 54.18423 159.17484 21928 ft 260 kts 224°
2026-04-30 02:46 54.17080 159.15437 21928 ft 260 kts 224°
2026-04-30 02:47 54.15729 159.13388 21925 ft 260 kts 223°
2026-04-30 02:47 54.14368 159.11333 21927 ft 261 kts 223°
2026-04-30 02:47 54.13016 159.09299 21931 ft 261 kts 223°
2026-04-30 02:47 54.11652 159.07254 21937 ft 260 kts 223°
2026-04-30 02:48 54.10288 159.05220 21939 ft 261 kts 223°
2026-04-30 02:48 54.08939 159.03217 21935 ft 261 kts 223°
2026-04-30 02:48 54.07571 159.01195 21928 ft 261 kts 223°
2026-04-30 02:48 54.06199 158.99178 21928 ft 261 kts 223°
2026-04-30 02:49 54.04821 158.97162 21922 ft 261 kts 223°
2026-04-30 02:49 54.03446 158.95160 21927 ft 261 kts 223°
2026-04-30 02:49 54.02074 158.93162 21927 ft 261 kts 223°
2026-04-30 02:49 54.00699 158.91167 21920 ft 261 kts 222°
2026-04-30 02:50 53.99323 158.89175 21924 ft 261 kts 222°
2026-04-30 02:50 53.97941 158.87183 21918 ft 261 kts 222°
2026-04-30 02:50 53.96549 158.85184 21918 ft 261 kts 222°
2026-04-30 02:50 53.95179 158.83225 21918 ft 261 kts 222°
2026-04-30 02:51 53.93796 158.81230 21934 ft 261 kts 224°
2026-04-30 02:51 53.92484 158.79097 21915 ft 261 kts 226°
2026-04-30 02:51 53.91199 158.76968 21909 ft 261 kts 226°
2026-04-30 02:51 53.89893 158.74828 21914 ft 261 kts 226°
2026-04-30 02:52 53.88588 158.72699 21905 ft 261 kts 226°
2026-04-30 02:52 53.87274 158.70569 21906 ft 261 kts 226°
2026-04-30 02:52 53.85963 158.68453 21712 ft 259 kts 225°
2026-04-30 02:52 53.84686 158.66409 21465 ft 248 kts 225°
2026-04-30 02:53 53.83454 158.64458 21184 ft 242 kts 225°
2026-04-30 02:53 53.82225 158.62523 20886 ft 239 kts 225°
2026-04-30 02:53 53.81020 158.60638 20586 ft 237 kts 225°
2026-04-30 02:53 53.79804 158.58743 20278 ft 236 kts 225°
2026-04-30 02:54 53.78611 158.56891 19972 ft 235 kts 225°
2026-04-30 02:54 53.77413 158.55043 19666 ft 234 kts 225°
2026-04-30 02:54 53.76211 158.53201 19359 ft 234 kts 225°
2026-04-30 02:54 53.74994 158.51352 19048 ft 233 kts 225°
2026-04-30 02:55 53.73798 158.49548 18749 ft 233 kts 224°
2026-04-30 02:55 53.72590 158.47736 18450 ft 232 kts 224°
2026-04-30 02:55 53.71401 158.45956 18160 ft 231 kts 224°
2026-04-30 02:55 53.70198 158.44161 17865 ft 231 kts 224°
2026-04-30 02:56 53.69005 158.42378 17572 ft 229 kts 224°
2026-04-30 02:56 53.67821 158.40614 17208 ft 226 kts 224°
2026-04-30 02:56 53.66642 158.38872 16800 ft 223 kts 224°
2026-04-30 02:56 53.65491 158.37177 16389 ft 221 kts 224°
2026-04-30 02:57 53.64340 158.35492 15986 ft 219 kts 224°
2026-04-30 02:57 53.63190 158.33818 15575 ft 217 kts 223°
2026-04-30 02:57 53.62054 158.32172 15185 ft 216 kts 223°
2026-04-30 02:57 53.60910 158.30541 14782 ft 215 kts 221°
2026-04-30 02:58 53.59724 158.29066 14382 ft 215 kts 218°
2026-04-30 02:58 53.58520 158.27606 13978 ft 214 kts 218°
2026-04-30 02:58 53.57312 158.26140 13574 ft 213 kts 218°
2026-04-30 02:58 53.56121 158.24701 13175 ft 212 kts 218°
2026-04-30 02:59 53.54935 158.23276 12785 ft 211 kts 218°
2026-04-30 02:59 53.53741 158.21846 12330 ft 213 kts 218°
2026-04-30 02:59 53.52517 158.20458 11863 ft 214 kts 211°
2026-04-30 02:59 53.51116 158.19629 11405 ft 217 kts 189°
2026-04-30 03:00 53.49608 158.19840 10875 ft 221 kts 164°
2026-04-30 03:00 53.48187 158.20795 10367 ft 222 kts 156°
2026-04-30 03:00 53.46764 158.21822 9856 ft 225 kts 156°
2026-04-30 03:00 53.45351 158.22865 9352 ft 222 kts 156°
2026-04-30 03:01 53.43966 158.23895 8829 ft 219 kts 156°
2026-04-30 03:01 53.42601 158.25006 8268 ft 216 kts 147°
2026-04-30 03:01 53.41379 158.26381 7737 ft 213 kts 146°
2026-04-30 03:01 53.40101 158.27615 7115 ft 215 kts 155°
2026-04-30 03:02 53.38745 158.28590 6441 ft 217 kts 156°
2026-04-30 03:02 53.37340 158.29588 5547 ft 218 kts 155°
2026-04-30 03:02 53.36074 158.30537 5331 ft 184 kts 155°
2026-04-30 03:02 53.34922 158.31244 4932 ft 170 kts 159°
2026-04-30 03:03 53.33818 158.31972 4081 ft 182 kts 159°
2026-04-30 03:03 53.31554 158.33575 2914 ft 159 kts 154°
2026-04-30 03:03 53.30972 158.34018 2643 ft 154 kts 155°
2026-04-30 03:09 53.30306 158.34486 2348 ft 144 kts 156°
2026-04-30 03:09 53.29495 158.35130 2145 ft 125 kts 154°
2026-04-30 03:09 53.28675 158.35744 1878 ft 135 kts 156°
2026-04-30 03:09 53.27840 158.36461 1734 ft 133 kts 147°
2026-04-30 03:10 53.27043 158.37143 1683 ft 127 kts 156°
2026-04-30 03:10 53.26244 158.37718 1615 ft 125 kts 160°
2026-04-30 03:10 53.25481 158.38402 1640 ft 122 kts 151°
2026-04-30 03:10 53.24757 158.39177 1614 ft 129 kts 145°
2026-04-30 03:11 53.23976 158.40004 1599 ft 134 kts 149°
2026-04-30 03:11 53.23135 158.40659 1491 ft 132 kts 156°
2026-04-30 03:11 53.22319 158.41252 1356 ft 123 kts 156°
2026-04-30 03:11 53.21571 158.41823 1113 ft 114 kts 155°
2026-04-30 03:12 53.20861 158.42317 846 ft 110 kts 157°
2026-04-30 03:12 53.20134 158.42831 631 ft 117 kts 157°
2026-04-30 03:12 53.19387 158.43362 413 ft 113 kts 156°
2026-04-30 03:12 53.18691 158.43848 184 ft 106 kts 160°
2026-04-30 03:13 53.18032 158.44307 72 ft 95 kts 158°
2026-04-30 03:13 53.17506 158.44679 58 ft 67 kts 156°
2026-04-30 03:13 53.17143 158.44923 58 ft 49 kts 158°
2026-04-30 03:13 53.16887 158.45102 58 ft 27 kts 155°
2026-04-30 03:14 53.16721 158.45213 58 ft 23 kts 158°
2026-04-30 03:14 53.16607 158.45288 58 ft 8 kts 158°
2026-04-30 03:14 53.16581 158.45317 58 ft 3 kts 23°
2026-04-30 03:14 53.16620 158.45291 58 ft 12 kts 337°
2026-04-30 03:15 53.16750 158.45206 58 ft 23 kts 337°
2026-04-30 03:15 53.16893 158.45094 58 ft 21 kts 333°
2026-04-30 03:15 53.17018 158.45000 58 ft 18 kts 339°
2026-04-30 03:15 53.17128 158.44931 58 ft 15 kts 339°
2026-04-30 03:16 53.17220 158.44870 58 ft 12 kts 336°
2026-04-30 03:16 53.17292 158.44820 58 ft 9 kts 336°
2026-04-30 03:16 53.17351 158.44778 58 ft 9 kts 337°
2026-04-30 03:16 53.17430 158.44725 57 ft 14 kts 338°
2026-04-30 03:17 53.17539 158.44650 57 ft 19 kts 335°
2026-04-30 03:17 53.17567 158.44467 57 ft 20 kts 248°
2026-04-30 03:17 53.17509 158.44241 57 ft 22 kts 246°
2026-04-30 03:17 53.17444 158.43988 57 ft 24 kts 246°
2026-04-30 03:18 53.17355 158.43733 57 ft 25 kts 237°
2026-04-30 03:18 53.17269 158.43498 57 ft 21 kts 240°
2026-04-30 03:18 53.17199 158.43297 57 ft 18 kts 239°
2026-04-30 03:18 53.17140 158.43131 57 ft 15 kts 239°
2026-04-30 03:19 53.17091 158.42992 57 ft 12 kts 239°
2026-04-30 03:19 53.17052 158.42883 57 ft 9 kts 239°
2026-04-30 03:19 53.17024 158.42802 57 ft 7 kts 239°
2026-04-30 03:19 53.17010 158.42717 57 ft 10 kts 270°
2026-04-30 03:20 53.17061 158.42618 57 ft 11 kts 329°
2026-04-30 03:20 53.17123 158.42558 56 ft 9 kts 330°
2026-04-30 03:20 53.17166 158.42545 56 ft 5 kts 56°
2026-04-30 03:20 53.17176 158.42572 56 ft 0 kts 59°
2026-04-30 03:45 53.17181 158.42586 56 ft 5 kts 60°
2026-04-30 03:45 53.17148 158.42651 56 ft 9 kts 149°
2026-04-30 03:45 53.17101 158.42697 56 ft 6 kts 149°